Timeline UpdatesTrip UpdatesNews PostsPvt PostsTravel TipsAdmin PostsConv PostsFollowed PostsChat RequestsBlog PostsPNR Posts

Disclaimer
Search
 
 
Tue Sep 2, 2014 14:52:26 ISTHomeTrainsΣChainsAtlasPNRForumGalleryNewsFAQTripsMembersLoginFeedback
No Recent News for this Train
Other Trains in the News **new
Latest...
from oct 1st, jjkr and tdd halts removed
Wed Aug 13, 2014 (08:14PM)
⇐ Return Journey: Train# 12842

12841/Coromandel Express

Time-Table HAS CHANGED.
Yesterday (11:45PM)
Change Departure Station:
Change Arrival Station:
Post a Train Travel TipPost a Train Travel Tip **new
Post a Comment/Question/Picture/VideoPost a Comment/Question/Picture/Video
Inaugural Run
Sun Mar 06, 1977
Pantry/Catering
✓ Pantry Car Avbl
✓ Catering Avbl
Loco/Rake Reversals
VSKP/Visakhapatnam Junction (8);
RSA - Rake Sharing
12839/12840/12841/12842(MAS HWH mail) has RSA & CBC RAKE.
Rake/Coach Composition
HWH to VSKP.; ; SLRD-UR-UR-HA1-A2-A1-B3-B2-B1-S12-PC-S11-S10-S9-S8-S7-S6-S5-S4-S3-S2-S1-UR-SLRD-LOCO; .; VSKP to MAS; ; LOCO-SLRD-UR-UR-HA1-A2-A1-B3-B2-B1-S12-PC-S11-S10-S9-S8-S7-S6-S5-S4-S3-S2-S1-UR-SLRD
Loco
Loco In-Charge:- HWH - VSKP:- SRC /HWH WAP-4. VSKP -...
Read more...
MAS:- ED /RPM WAP-4.
News    PNR    Forum    Time-Table    Availability    Fare Chart    Map    Arr/Dep History    Trips    Gallery    ΣChains    X/O    Timeline    
Travel Time: 26h 25m    12 halts    Distance: 1661 km    Avg Speed: 62 km/hr
Type: SuperFast
Zone: SER/South Eastern
Departs @ 14:50
Platform# 22
SMTWTFS
Kolkata Howrah Junction/HWH 
Arrives @ 17:15 +1 night
Platform# 8
SMTWTFS
Chennai Central/MAS 

12 halts. 294 intermediate Stations between Kolkata Howrah Junction and Chennai Central

Hide intermediate Stations  Show Old Time-Table

#CodeStation NameX/OArrivesAvgDepartsAvgHaltPFDay#KmSpeedElevZoneAddress
1HWH»Kolkata Howrah Junction (23)»  -14:50-2210.06910mERHowrah 711101, West Bengal
1.1HJNHowrah Junction Cabin  14:51-14:51-  10.7 697mERHowrah, West Bengal
1.2HWHGHowrah Goods Cabin  14:51-14:51-  11.0 696mERHowrah, West Bengal
1.3TPKRTikiapara (3)  14:52-14:52-  12.6 699mSERHowrah, West Bengal
1.4DSNRDashnagar (3)  14:54-14:54-  14.2 698mSERHowrah, West Bengal
1.5RMJRamrajatala (4)  14:55-14:55-  16.0 697mSERHowrah, West Bengal
1.6SRCKolkata Santragachi Junction (6)  14:56-14:56-  17.4 697mSERDist: Howrah - 711104, West Bengal
1.7MRGMMaurigram (3)  14:59-14:59-  110.4 698mSERDist - Howrah, West Bengal
1.8ADLAndul (5)  15:01-15:01-  112.1 6910mSERPin: 711302, West Bengal
1.9SELSankrail (4)  15:04-15:04-  115.8 690mSERSankrail, West Bengal
1.10ABBAbada (3)  15:05-15:05-  117.7 697mSERPin: 711313, West Bengal
1.11NALRNalpur (4)  15:08-15:08-  120.2 695mSERHowrah, West Bengal
1.12BVABauria Junction (5)X  15:11-15:11-  124.0 697mSERHowrah, West Bengal
1.13CGAChengel (5)  15:14-15:14-  127.1 698mSERNational Highway 6, West Bengal
1.14FLRPhuleswar (5)  15:16-15:16-  129.7 6910mSERHowrah, West Bengal
1.15ULBUluberia (6)  15:18-15:18-  132.2 6910mSERdist - howrah, West Bengal
1.16BSBPBir Shibpur (4)  15:21-15:21-  136.2 695mSERDist: Howrah, West Bengal
1.17KGYKulgachia (3)  15:24-15:24-  139.6 697mSERHowrah, West Bengal
1.18BZNBagnan (4)X  15:29-15:29-  145.1 698mSERBagnan, West Bengal
1.19GGTAGhoraghata (2)  15:32-15:32-  147.8 698mSERGraghata Station, West Bengal
1.20DTEDeulti (5)  15:34-15:34-  150.8 699mSERDeulty, West Bengal
1.21QGTKolaghat (3)  15:38-15:38-  155.0 6911mSERNational Highway 6, West Bengal
1.22MCAMecheda (6)  15:41-15:41-  158.2 6910mSERdist - purba Medinipur, West Bengal
1.23NDGJNandaigajan P.H. (2)  15:43-15:43-  161.2 697mSERNH41, West Bengal
1.24BOPBhogpur (4)X  15:45-15:45-  163.5 697mSERMedinipur, West Bengal
1.25PKEOPanskura East Outer  15:48-15:48-  166.3 694mSERPanskura, West Bengal
1.26NPMRNarayan Pakuria Murail (2)  15:48-15:48-  167.2 694mSERPanskura- 721171, West Bengal
1.27PKUPanskura Junction (6)  15:51-15:51-  170.6 699mSERPanskura, West Bengal
1.28KHAIKhirai (3)X  15:56-15:56-  175.8 6911mSERPaschim Medinipur, West Bengal
1.29HAURHaur (4)  16:00-16:00-  180.2 6912mSERMedinipur, West Bengal
1.30RDURadhamohanpur (2)X  16:04-16:04-  184.6 6917mSERDist: West Medinipur, West Bengal
1.31DUANDuan (2)  16:06-16:06-  187.7 6917mSERDist: West Medinipur, West Bengal
1.32BCKBalichak (4)X  16:09-16:09-  190.8 6921mSERKharagpur, West Bengal
1.33SMCKShyam Chak (4)XO  16:14-16:14-  196.3 6920mSERDist: West Medinipur, West Bengal
1.34MPDMadpur (4)  16:19-16:19-  1102.2 6927mSERKharagpur, West Bengal
1.35JPRJakpur (4)  16:24-16:24-  1108.0 6928mSERJakpur, West Bengal
2KGPKharagpur Junction (10)  16:30-16:35-5m31115.08242mSERKharagpur, West Bengal
2.1HIJHijli (2)  16:38-16:38-  1118.9 8248mSERdist - paschim medinipur, West Bengal
2.2BPEBenapurX  16:44-16:44-  1127.0 8235mSERNational Highway 60, West Bengal
2.3NYANarayangarh (4)  16:52-16:52-  1138.1 8224mSERKasba Narayangarh, West Bengal
2.4VKDBakhrabad  16:57-16:57-  1144.6 8215mSERMedinipur, West Bengal
2.5CNTContai Road  17:01-17:01-  1150.5 8224mSERDist - Pashim medinipur, West Bengal
2.6BLDABelda  17:01-17:01-  1150.5 8224mSERDistrict Paschim Medinipur, West Bengal
2.7NSINekurseni (3)X  17:07-17:07-  1158.6 8224mSERNikursini, West Bengal
2.8DNTDantan  17:13-17:13-  1167.1 8219mSERNational Highway 60, West Bengal
2.9AGVAngua  17:16-17:16-  1171.6 8217mSERWest Medinipore, West Bengal
2.10LXDLakshannath Road  17:21-17:21-  1177.5 8217mSERDist. Balasore, Odisha
2.11JERJaleswar (4)O  17:25-17:25-  1183.6 8213mSERJaleswar, Odisha
2.12RGTRajghat Halt  17:31-17:31-  1191.3 8217mSERRajghat, Odisha
2.13ARDAmarda Road (4)  17:36-17:36-  1197.8 8211mSERAmarda Road, Odisha
2.14BTSBasta (3)X  17:40-17:40-  1203.1 8216mSERBasta, Odisha
2.15NMBRN Mayurbhanj Road (3)X  17:43-17:43-  1207.9 8211mSERBaleswar, Odisha
2.16ROPRupsa Junction (5)X  17:47-17:47-  1213.3 8213mSERRupsa, Odisha
2.17HIPHaldipada (4)  17:51-17:51-  1219.4 829mSERHaldipada, Odisha
2.18TKPLTikirapal Halt  17:56-17:56-  1226.1 828mSERBaleswar, Odisha
3BLSBalasore (4)  18:00-18:05-5m21231.16219mSERBalasore, Odisha
3.1NGRDNilgiri RoadX  18:15-18:15-  1241.8 6214mSERBaleswar, Odisha
3.2KHFKhantaparaX  18:20-18:20-  1246.5 6215mSERKhantaparha, Odisha
3.3PNPNPanpana  18:25-18:25-  1251.5 6215mSERKhantaparha, Odisha
3.4BNBRBahanaga BazarX  18:29-18:29-  1255.9 6219mSERBalasore Distt., Odisha
3.5SOROSoro  18:37-18:37-  1264.6 6214mSERSoro, Odisha
3.6SZZSabira  18:45-18:45-  1273.3 6214mSERNational Highway 5, Odisha
3.7MKOMarkona  18:51-18:51-  1279.3 6218mSERMarkuna, Odisha
3.8RNTLRanital  18:57-18:57-  1285.8 6222mSERBhadrak, Odisha
4BHCBhadrak (4)  19:05-19:07-2m21293.69023mECoRBhadrak, Odisha
4.1BUDRBaudpurX  19:11-19:11-  1300.0 9021mECoRBhadrak, Odisha
4.2KPLDKapali Road  19:14-19:14-  1304.3 9020mECoRKantia, Odisha
4.3KEDKenduapada  19:17-19:17-  1309.0 9023mECoRBhadrak, Odisha
4.4MZZManjuri RoadX  19:22-19:22-  1315.9 9028mECoRBhadrak, Odisha
4.5DLPTDulakhapatna  19:24-19:24-  1319.9 9027mECoRBandalo, Odisha
4.6BTVBaitarani Road  19:28-19:28-  1325.4 9027mECoRBaitarani, Odisha
4.7KRIHKorai Halt  19:33-19:33-  1332.3 9030mECoRJajapur, Odisha
5JJKRJajpur Keonjhar Road (4)19:34 19:36-19:36 19:38-2m--1337.27036mECoRJajpur, Odisha
5.1JKPRJakhapuraX  19:45-19:45-  1345.0 7019mECoRJajpur, Odisha
5.2BRMIBrahamani Ph  19:50-19:50-  1350.6 7022mECoRNational Highway 200, Odisha
5.3JENJenapurX  19:51-19:51-  1352.9 7023mECoRNational Highway 200, Odisha
5.4NGMPNew Garh Madhopur  19:57-19:57-  1358.8 7028mECoRGarh Madhopur, Odisha
5.5HDSHaridaspurX  20:05-20:05-  1368.6 7030mECoRDhanmandal, Odisha
5.6DNMDhanmandal (3)X  20:09-20:09-  1373.7 7038mECoRDhanmanda, Odisha
5.7BRTGBarithengarh  20:15-20:15-  1380.1 7025mECoRCuttack, Odisha
5.8BYYByree  20:19-20:19-  1384.6 7033mECoRBairi, Odisha
5.9SJDRSri Jhadeshwar Road  20:22-20:22-  1388.5 7030mECoRNational Highway 5, Odisha
5.10KISKapilas Road Junction  20:27-20:27-  1394.4 7024mECoRTangi, Odisha
5.11NRGNergundi  20:31-20:31-  1398.5 7026mECoRCuttack District, Odisha
5.12KNPRKendrapara Road  20:36-20:36-  1405.1 7029mECoRKendrapara Road, Odisha
6CTCCuttack Junction (5)X  20:40-20:45-5m21409.24828mECoRCuttack, Odisha
6.1KTJIKatha Jori  20:47-20:47-  1410.8 4828mECoRCuttack, Odisha
6.2GBKGopalpur BalkudaX  20:51-20:51-  1413.6 4828mECoRGopalpur, Odisha
6.3BRAGBarangX  21:00-21:00-  1421.4 4827mECoRDist - Cuttack, Odisha
6.4BBSNBhubaneswar New  21:07-21:07-  1426.5 4832mECoRBhubaneshwar, Odisha
6.5PTABPatia P.H.  21:08-21:08-  1427.3 4830mECoRBhubaneshwar, Odisha
6.6MCSMancheswarX  21:11-21:11-  1430.3 4827mECoRMancheswar, Odisha
6.7BNBHBani Bihar (2)  21:16-21:16-  1433.6 4838mECoRBhubaneswar, Odisha
7BBSBhubaneswar (4)X  21:20-21:25-5m41437.13240mECoRBhubaneshwar, Odisha
7.1LGTRLingaraj Temple Road  21:33-21:33-  1441.6 3239mECoRBhubaneswar, Odisha
7.2SRKTSarkantraX  21:37-21:37-  1443.8 3219mECoRBhubaneswar, Odisha
7.3RTNRetangX  21:46-21:46-  1448.6 3219mECoRKhurdha, Odisha
8KURKhurda Road Junction (7)X  22:00-22:15-15m71456.07725mECoRKhordha, Odisha
8.1ARGLArgul P.H.  22:19-22:19-  1461.3 7724mECoRKhordha, Odisha
8.2KPXRKaipadar Road  22:22-22:22-  1465.3 7722mECoRKaipada Road, Odisha
8.3DLMHDhaulimuhanX  22:26-22:26-  1469.8 7721mECoRKhordha, Odisha
8.4TAPTapang  22:29-22:29-  1473.7 7715mECoRKhordha, Odisha
8.5GLBAGolabai  22:33-22:33-  1478.5 7713mECoRKhordha, Odisha
8.6NKPNirakarpur  22:36-22:36-  1482.5 7721mECoRNirakarpur, Odisha
8.7BSDPBhusandpur  22:41-22:41-  1489.6 7720mECoRBhushandapur, Odisha
8.8MKTPMuketashwar  22:46-22:46-  1495.1 7713mECoRKhordha, Odisha
8.9KAPGKalupara Ghat  22:49-22:49-  1499.4 7710mECoRChandeswar, Odisha
8.10KUUKuhuri  22:54-22:54-  1506.1 7726mECoRKhordha, Odisha
8.11GNGDGangadharpur  23:00-23:00-  1514.1 7722mECoRKhordha, Odisha
8.12SLZSolariX  23:04-23:04-  1519.2 7718mECoRSolari, Odisha
8.13BALUBalugaon (3)X  23:11-23:11-  1527.1 7711mECoR752030, Odisha
8.14CLKAChilka  23:16-23:16-  1534.3 7725mECoRBarkul, Odisha
8.15KLJIKalijai  23:20-23:20-  1539.5 7711mECoRGarh, Odisha
8.16KITKhallikot (3)  23:24-23:24-  1544.3 7713mECoRKhallikot, Odisha
8.17RBARambha  23:33-23:33-  1555.5 7714mECoRGanjam District, Odisha
8.18HMAHumma  23:41-23:41-  1566.6 7719mECoRGanjam District, Odisha
8.19GAMGanjam  23:46-23:46-  1572.8 778mECoRGanjam, Odisha
8.20CAPCChatrapur Court (2)  23:53-23:53-  1580.8 7732mECoRChatrapur, Odisha
8.21CAPChatrapur  23:53-23:53-  1581.7 7736mECoRChatrapur, Odisha
8.22NRSPNarasimhapura  23:56-23:56-  1585.4 7750mECoRGanjam, Odisha
8.23JNPJagan Nathapur  00:03-00:03-  2594.4 7729mECoRBerhampur, Odisha
9BAMBrahmapur (3)  00:05 00:10-00:07 00:12-2m22603.26627mECoRBerhampur, Odisha
9.1GTAGolanthra  00:22-00:22-  2613.8 6628mECoRGanjam, Odisha
9.2SLRDSurla RoadX  00:27-00:27-  2619.2 6618mECoRGanjam, Odisha
9.3IPMIchchapuram  00:34-00:34-  2627.6 6621mECoRIchchapuram, Andhra Pradesh
9.4JPIJhadupudiX  00:45-00:45-  2639.4 6638mECoRSrikakulam, Andhra Pradesh
9.5SPTSompeta (4)  00:51-00:51-  2645.6 6648mECoRKanchili, Andhra Pradesh
9.6BAVBaruvaX  00:59-00:59-  2655.0 6617mECoRSrikakulam, Andhra Pradesh
9.7MMSMandasa Road  01:08-01:08-  2664.4 6638mECoRSrikakulam, Andhra Pradesh
9.8SUDVSummadevi  01:14-01:14-  2671.0 6658mECoRSummadevi, Andhra Pradesh
9.9PSAPalasa (3)X  01:20-01:20-  2677.5 6631mECoRKasibugga, Andhra Pradesh
9.10PUNPundi  01:31-01:31-  2689.8 6638mECoRSrikakulam, Andhra Pradesh
9.11RMZRouthpuram Halt  01:37-01:37-  2696.1 6612mECoRSrikakulam, Andhra Pradesh
9.12NWPNaupada JunctionX  01:43-01:43-  2703.2 6613mECoRNuapada . ph.no. 08945-249728, Andhra Pradesh
9.13DGBDindu Gopala Puram HaltX  01:48-01:48-  2709.1 668mECoRPundi Rd, Andhra Pradesh
9.14KBMKotabommali  01:56-01:56-  2717.0 6613mECoRSrikakulam, Andhra Pradesh
9.15HCMHarishchandrapuramX  02:03-02:03-  2725.3 6628mECoRNational Highway 5, Andhra Pradesh
9.16TIUTilaru (4)X  02:08-02:08-  2730.7 6650mECoRSrikakulam District, Andhra Pradesh
9.17ULMUrlam  02:17-02:17-  2740.5 6619mECoRSrikakulam, Andhra Pradesh
9.18CHESrikakulam Road (4)X  02:26-02:26-  2750.5 6634mECoRsrikakulam road ph .no. 08942-287222, Andhra Pradesh
9.19DUSIDusi  02:32-02:32-  2756.9 6628mECoRSrikakulam, Andhra Pradesh
9.20PDUPonduru  02:40-02:40-  2765.8 6639mECoRSrikakulam, Andhra Pradesh
9.21SGDMSigadam  02:49-02:49-  2775.8 6667mECoRSrikakulam, Andhra Pradesh
9.22BTVABatuva  02:57-02:57-  2784.3 66103mECoRKapusambham, Andhra Pradesh
9.23CPPChipurupalle  03:01-03:01-  2789.1 6699mECoRCheepurupalli, Andhra Pradesh
9.24GVIGarividi  03:07-03:07-  2795.7 6692mECoRGarividi Railway Station Rd, Andhra Pradesh
9.25GULGujjangivalasa  03:12-03:12-  2801.4 6667mECoRGujjangivalasa, Odisha
9.26NMLNellimarlaX  03:19-03:19-  2808.8 6637mECoRCoastal Andhra Region, Andhra Pradesh
9.27VZMVizianagaram Junction (5)  03:29-03:29-  2820.0 6663mECoRVizianagaram, Andhra Pradesh
9.28KUKKorukondaX  03:39-03:39-  2830.6 6638mECoRKorukonda, Andhra Pradesh
9.29ALMAlamandaX  03:46-03:46-  2837.8 6651mECoRAlamanda Road, Andhra Pradesh
9.30KPLKantakapalle  03:54-03:54-  2847.0 6679mECoRKantakapalle, Andhra Pradesh
9.31KTVKottavalasa Junction (5)X  04:01-04:01-  2855.0 6658mECoRVizianagaram District, Andhra Pradesh
9.32PDTPendurti (7)  04:09-04:09-  2863.8 6627mECoRVisakhapatnam, Andhra Pradesh
9.33SCMNSimhachalam North (5)  04:16-04:16-  2871.6 6620mECoRVishakhapatnam, Andhra Pradesh
9.34SCMSimhachalam (2)  04:18-04:18-  2873.0 6627mECoRVisakhapatnam, Andhra Pradesh
9.35MIPMMarripalem (2)  04:21-04:21-  2876.5 6617mECoRVishakhapatnam, Andhra Pradesh
10VSKPVisakhapatnam Junction (8)X↵¶04:25-04:45-20m12881.27211mECoRVishakhapatnam 530001, Andhra Pradesh
10.1MIPMMarripalem (2)  04:49-04:49-  2885.7 7217mECoRVishakhapatnam, Andhra Pradesh
10.2GPTGopalapatnam  04:54-04:54-  2891.7 729mECoRVisakhapatnam, Andhra Pradesh
10.3DVDDuvvada (4)X  04:59-04:59-  2897.5 7246mECoRVishakhapatnam District, Andhra Pradesh
10.4THYThadi  05:07-05:07-  2907.3 7239mSCRKonda Koppaka, Andhra Pradesh
10.5AKPAnakapalle (3)X  05:12-05:12-  2913.5 7230mSCRAnakapalle ph.no . 08924-221698, Andhra Pradesh
10.6KSKKasimkotaX  05:16-05:16-  2918.9 7238mSCRVisakhapatnam District, Andhra Pradesh
10.7BVMBayyavaramX  05:20-05:20-  2922.7 7238mSCRCoastal Andhra Region, Andhra Pradesh
10.8NASPNarasingapalli  05:26-05:26-  2930.1 7220mSCRVishakhapatnam, Andhra Pradesh
10.9YLMElamanchili (2)X  05:32-05:32-  2937.2 7223mSCRVisakhapatnam District, Andhra Pradesh
10.10REGRegupalem  05:39-05:39-  2945.7 7226mSCRVisakhapatnam District, Andhra Pradesh
10.11NRPNarsipatnam Road (2)X  05:46-05:46-  2955.0 7218mSCRVisakhapatnam District, Andhra Pradesh
10.12GLUGullipadu  05:56-05:56-  2966.1 7230mSCRVisakhapatnam District, Andhra Pradesh
10.13TUNITuni (2)X  06:05-06:05-  2977.3 7224mSCRTuni ph.no. 08854-252172, Andhra Pradesh
10.14HVMHamsavaram  06:12-06:12-  2985.6 7247mSCRHamsavaram, Andhra Pradesh
10.15TMPMTimmapuram  06:16-06:16-  2990.2 7228mSCRNational Highway 5, Andhra Pradesh
10.16ANVAnnavaram (3)X  06:19-06:19-  2993.9 7227mSCREast Godavari District, Andhra Pradesh
10.17RVDRavikampadu  06:24-06:24-  21000.9 7227mSCREast Godavari District, Andhra Pradesh
10.18DGDGDurgada GateX  06:27-06:27-  21003.7 7223mSCREast Godavari, Andhra Pradesh
10.19MVRMMallavaram  06:30-06:30-  21007.9 7214mSCRChebrolu, Andhra Pradesh
10.20GLPGollaprolu  06:35-06:35-  21013.0 7219mSCRGollaprollu, Andhra Pradesh
10.21PAPPithapuram (2)  06:39-06:39-  21018.7 7222mSCREast Godavari District, Andhra Pradesh
10.22CRPMChandrampalem  06:43-06:43-  21023.2 7215mSCRKandarada Road, Andhra Pradesh
10.23SLOSamalkot Junction (3)  06:49-06:49-  21030.8 7218mSCRSamalkot, Andhra Pradesh
10.24GDPTGudapartiX  06:53-06:53-  21035.3 7221mSCRVetlapalem, Andhra Pradesh
10.25MPUMedapadu  06:57-06:57-  21039.8 7220mSCRMedapadu, Andhra Pradesh
10.26PBDPeddabrahmadevamX  06:59-06:59-  21042.2 7216mSCRPedabramadvam, Andhra Pradesh
10.27BVLBikkavolu  07:04-07:04-  21047.9 7216mSCREast Godavari District, Andhra Pradesh
10.28BBPMBalabhadrapuram  07:06-07:06-  21051.3 7223mSCRBalabhadhrapuram, Andhra Pradesh
10.29APTAnaparti (3)X  07:11-07:11-  21057.3 7221mSCREast Godavari District, Andhra Pradesh
10.30DWPDwarapudi (3)X  07:14-07:14-  21061.1 7220mSCREast Godavari District, Andhra Pradesh
10.31KSVMKesavaramX  07:18-07:18-  21065.3 7216mSCRKesavaram, Andhra Pradesh
10.32KYMKadiyam (1)XO  07:23-07:23-  21071.0 7215mSCREast Godavari, Andhra Pradesh
11RJYRajahmundry (3)  07:31-07:33-2m121081.06023mSCRRajahmundry ph.no. 0883-2420541, Andhra Pradesh
11.1GVNGodavari  07:36-07:36-  21084.0 6024mSCRRajahmundry, Andhra Pradesh
11.2KVRKovvur (3)X  07:41-07:41-  21088.8 6025mSCRWest Godavari, Andhra Pradesh
11.3PSDAPasivedala (2)  07:44-07:44-  21091.9 6022mSCRWest Godavari District, Andhra Pradesh
11.4CUChagalluX  07:47-07:47-  21095.4 6018mSCRWest Godavari, Andhra Pradesh
11.5BMGMBrahmanagudem (2)  07:52-07:52-  21099.7 6018mSCRNidadavolu, Andhra Pradesh
11.6NDDNidadavolu Junction (3)X  07:55-07:55-  21103.1 6020mSCRNidadavolu jtn ph.no. 08813-210325, Andhra Pradesh
11.7MRPLMarampalli  08:03-08:03-  21110.8 6017mSCRMarampalli Rd, Andhra Pradesh
11.8NBMNavabpalemX  08:06-08:06-  21114.0 6016mSCRWest Godavari District, Andhra Pradesh
11.9PTPUPrattiapadu  08:10-08:10-  21117.7 6016mSCRApparaopeta Rd, Andhra Pradesh
12TDDTadepalligudem (3)X08:15-08:16-1m--21123.15218mSCRTadepalligudem, Andhra Pradesh
12.1BPYBadampudiO  08:23-08:23-  21129.1 5220mSCRBadampudi, Andhra Pradesh
12.2VGTUnguturuO  08:29-08:29-  21134.5 5217mSCRUnguturu, Andhra Pradesh
12.3CELChebrol  08:33-08:33-  21137.4 5218mSCRWest Godavari District, Andhra Pradesh
12.4KKRMKaikaramX  08:37-08:37-  21140.8 5219mSCRKaikaram, Andhra Pradesh
12.5PUAPullaO  08:42-08:42-  21145.2 5215mSCRPulla, Andhra Pradesh
12.6BMDBhimadolu (3)X  08:49-08:49-  21151.9 5214mSCRBhimadolu, Andhra Pradesh
12.7STPTSitampet  08:56-08:56-  21157.5 5220mSCREGK Rd, Andhra Pradesh
12.8DELDenduluru  09:00-09:00-  21161.1 5221mSCRWest Godavari, Andhra Pradesh
12.9EEEluru (3)  09:11-09:11-  21170.9 5219mSCREluru Ph.no. 08812 226401., Andhra Pradesh
12.10PRHPowerpet (2)  09:13-09:13-  21172.3 5220mSCREluru, Andhra Pradesh
12.11VATVatlurXO  09:21-09:21-  21179.3 5216mSCREluru, Andhra Pradesh
12.12NZDNuzvid (3)X  09:32-09:32-  21189.1 5228mSCRHanuman Junction, Andhra Pradesh
12.13VRVLViravalliO  09:40-09:40-  21195.6 5221mSCRViravalli, Andhra Pradesh
12.14TOUTelaproluX  09:44-09:44-  21198.8 5220mSCRKrishna, Andhra Pradesh
12.15PAVPPedda AvutapaleX  09:52-09:52-  21205.8 5225mSCRPedda Avutapalle, Andhra Pradesh
12.16GWMGannavaram  09:57-09:57-  21210.4 5224mSCRGannavaram, Andhra Pradesh
12.17MBDMustabada  10:05-10:05-  21217.4 5220mSCRKrishna, Andhra Pradesh
12.18GALAGunadala  10:13-10:13-  21224.2 5219mSCRGunadala Rd, Andhra Pradesh
13BZAVijayawada Junction (10)X  10:20-10:35-15m121230.26524mSCRVijayawada 520001, Andhra Pradesh
13.1KCCKrishna Canal Junction (6)O  10:39-10:39-  21234.9 6521mSCRTadepalli, Andhra Pradesh
13.2KAQKolanukonda (1)X  10:42-10:42-  21238.3 6522mSCRNational Highway 5, Andhra Pradesh
13.3PVDPeddavadiapudi (3)  10:46-10:46-  21242.1 6520mSCRKL University to NH 5, Andhra Pradesh
13.4CLVRChiluvur  10:50-10:50-  21246.0 6520mSCRChiluvuru, Andhra Pradesh
13.5MODMorampudi  10:52-10:52-  21248.4 6516mSCRMorampudi, Andhra Pradesh
13.6DIGDuggirala (3)O  10:55-10:55-  21251.8 6516mSCRDuggirala, Andhra Pradesh
13.7KLXKolakalur  10:58-10:58-  21255.4 6515mSCRNandivelugu Rd, Andhra Pradesh
13.8TELTenali Junction (5)  11:04-11:04-  21261.5 6516mSCRTel: 08644-227834, Andhra Pradesh
13.9VRUValiveruX  11:11-11:11-  21268.8 6510mSCRValiveru Railway Gate, Andhra Pradesh
13.10TSRTsunduru (3)X  11:15-11:15-  21273.0 6512mSCRTsunduru, Andhra Pradesh
13.11MDKUModukuru (2)XO  11:18-11:18-  21276.7 6510mSCRModukuru, Andhra Pradesh
13.12NDONidubrolu (3)X  11:24-11:24-  21283.5 659mSCRNidubrolu, Andhra Pradesh
13.13MCVMMachavaramX  11:29-11:29-  21288.5 657mSCRMachavaram, Andhra Pradesh
13.14APLAppikatla (2)  11:35-11:35-  21295.3 657mSCRGBC Rd, Andhra Pradesh
13.15BPPBapatla (3)XO  11:44-11:44-  21304.1 6510mSCRBapatla, Andhra Pradesh
13.16SPFStuartpuram  11:50-11:50-  21311.0 659mSCRBapatla West Rural, Andhra Pradesh
13.17IPPMIpurupalem  11:54-11:54-  21314.9 658mSCRIpurupalem, Andhra Pradesh
13.18IPPNIpurupalem Halt (1)  11:54-11:54-  21315.1 658mSCRIpurupalem, Andhra Pradesh
13.19CLXChirala (4)  11:58-11:58-  21319.2 658mSCRChirala, Andhra Pradesh
13.20JAQJandrapeta (2)O  12:01-12:01-  21322.4 659mSCRChirala, Andhra Pradesh
13.21VTMVetapalem (3)  12:05-12:05-  21327.1 658mSCRVetapalem, Andhra Pradesh
13.22KPLLKottapandillapalli (2)X  12:08-12:08-  21330.6 658mSCRNH 214A, Andhra Pradesh
13.23KVDUKadavakuduru (2)X  12:12-12:12-  21334.8 658mSCRKadavakuduru, Andhra Pradesh
13.24CJMChinnaganjam (3)  12:16-12:16-  21339.5 659mSCRChinna Ganjam, Andhra Pradesh
13.25UGDUppugunduru (2)X  12:22-12:22-  21346.0 655mSCRUppugundur Machavaram Rd, Andhra Pradesh
13.26RPRLRaparla Halt (2)  12:26-12:26-  21350.3 659mSCRNH 214A, Andhra Pradesh
13.27ANBAmmanabrolu (3)  12:30-12:30-  21353.6 6516mSCRAmmanabrolu, Andhra Pradesh
13.28KRVKaravadi (2)  12:35-12:35-  21359.9 6511mSCRKaravadi, Andhra Pradesh
13.29OGLOngole (3)X  12:43-12:43-  21368.5 6512mSCROngole, Andhra Pradesh
13.30SDMSurareddipalem (3)  12:53-12:53-  21378.8 659mSCRSurareddy Palem, Andhra Pradesh
13.31TNRTanguturu (3)  13:01-13:01-  21387.1 6510mSCRTanguturu, Andhra Pradesh
13.32SKMSingarayakonda (2)XO  13:10-13:10-  21396.8 6526mSCRSingarayakonda, Andhra Pradesh
13.33UPDUlavapadu (2)X  13:19-13:19-  21406.4 6513mSCRUlavapadu, Andhra Pradesh
13.34TTUTettu (2)X  13:31-13:31-  21420.3 6524mSCRNational Highway 5, Andhra Pradesh
13.35KVZKavali (4)  13:45-13:45-  21434.5 6521mSCRKavali, Andhra Pradesh
13.36SVPMSri Venkateswarapalem (2)  13:56-13:56-  21446.8 6522mSCRNational Highway 5, Andhra Pradesh
13.37BTTRBitragunta (2)X  14:00-14:00-  21451.0 6515mSCRBitragunta, Andhra Pradesh
13.38AXRAlluru RoadO  14:06-14:06-  21457.5 658mSCRNational Highway 5, Andhra Pradesh
13.39TMCTalamanchi  14:17-14:17-  21469.1 6515mSCRNational Highway 5, Andhra Pradesh
13.40KJJKodavaluru (2)  14:21-14:21-  21473.8 6517mSCRNational Highway 5, Andhra Pradesh
13.41PGUPadugupadu (3)  14:28-14:28-  21481.3 6521mSCRKovur, Andhra Pradesh
13.42NLRNellore (4)  14:32-14:32-  21485.3 6521mSCRNellore, Andhra Pradesh
13.43NLSNellore South (2)X  14:34-14:34-  21487.2 6522mSCRNellore, Andhra Pradesh
13.44VDEVedayapalem (2)  14:39-14:39-  21492.6 6527mSCRNellore, Andhra Pradesh
13.45VKTVenkatachalam (3)O  14:47-14:47-  21501.8 6526mSCRVenkatachelam, Andhra Pradesh
13.46KMLPKommarapudi (2)X  14:53-14:53-  21508.5 658mSCRNational Highway 5, Andhra Pradesh
13.47MBLManubolu (3)  14:59-14:59-  21514.2 6522mSCRManubolu Railway Station, Andhra Pradesh
13.48GDRGudur Junction (3)O  15:07-15:07-  21523.8 6519mSCRGudur, Andhra Pradesh
13.49ODUROdur (1)  15:15-15:15-  21532.2 6534mSROduru, Andhra Pradesh
13.50PYAPedapariya (3)X  15:21-15:21-  21538.3 6542mSRPedapariya, Andhra Pradesh
13.51NYPNayadupeta (3)X  15:33-15:33-  21551.4 6533mSRNayudupeta, Andhra Pradesh
13.52DVRDoravari Chatram (1)  15:44-15:44-  21563.0 6531mSRNelapattu, Andhra Pradesh
13.53PELPolireddipalem (1)X  15:51-15:51-  21570.5 6513mSR, Andhra Pradesh
13.54SPESullurupeta (3)  15:58-15:58-  21578.7 659mSR524121., Andhra Pradesh
13.55AKATAkkampet (2)  16:04-16:04-  21584.2 654mSRAkkampeta., Andhra Pradesh
13.56TADATada (3)  16:10-16:10-  21591.1 6511mSRTada., Andhra Pradesh
13.57AKMArambakkam (2)X  16:17-16:17-  21598.7 6511mSRArambakkam, Tamil Nadu
13.58ELRElavur (3)X  16:26-16:26-  21608.4 6514mSRElavur, Tamil Nadu
13.59GPDGummidipundi (4)  16:31-16:31-  21613.9 6518mSRGummidipundi, Tamil Nadu
13.60KVPKavaraippettai (3)  16:37-16:37-  21619.8 6516mSRKavaraipettai, Tamil Nadu
13.61PONPonneri (4)  16:43-16:43-  21626.5 6515mSRPonneri, Tamil Nadu
13.62APBAnuppambattu (2)X  16:47-16:47-  21631.2 6512mSRRailway Border Rd, Tamil Nadu
13.63MJRMinjur (3)X  16:51-16:51-  21635.2 658mSRMinjur, Tamil Nadu
13.64NPKMNandiambakkam (2)  16:53-16:53-  21637.5 656mSRMinjur, Tamil Nadu
13.65AIPAttipattu (2)  16:55-16:55-  21639.1 657mSRMinjur, Tamil Nadu
13.66AIPPAttipattu Pudu Nagar (4)X  16:56-16:56-  21640.9 654mSRMinjur, Tamil Nadu
13.67ENREnnore (3)  17:00-17:00-  21645.1 657mSRChennai, Tamil Nadu
13.68KAVMKathivakkam (3)  17:02-17:02-  21646.7 659mSRChennai, Tamil Nadu
13.69WCNWimco Nagar (3)  17:04-17:04-  21649.6 659mSRChennai, Tamil Nadu
13.70TVTTiruvottiyur (3)  17:07-17:07-  21652.2 657mSRChennai - -600019. Phone: 044-25735314, Tamil Nadu
13.71VOCV.0.C. Nagar (3)  17:09-17:09-  21654.6 655mSRChennai, Tamil Nadu
13.72TNPTondiarpet (3)  17:10-17:10-  21656.1 655mSRChennai, Tamil Nadu
13.73KOKKorukkupet (4)  17:11-17:11-  21657.1 657mSRChennai, Tamil Nadu
13.74BBQBasin Bridge Junction (7)  17:13-17:13-  21659.2 656mSRChennai, Tamil Nadu
13.75MMCCChennai Moore Market Complex (3)  17:14-17:14-  21660.5 655mSRChennai, Tamil Nadu
14MAS•Chennai Central (12)•  17:15--821661.1-9mSRChennai 600003, Tamil Nadu
Scroll to Top
Scroll to Bottom